Time;durP1;ratioP1;P1;durP2;ratioP2;P2;SDS_P1;SDS_P2;PMS_P1;PMS_P2;Temp;Humidity;BMP_temperature;BMP_pressure;BME280_temperature;BME280_humidity;BME280_pressure;Samples;Min_cycle;Max_cycle;Signal;HPM_P1;HPM_P2
2022/10/13 00:01:15;;;;;;;27.70;13.63;;;9.50;99.90;;;;;;5048625;28;20044;-78
2022/10/13 00:03:44;;;;;;;32.22;14.10;;;9.40;99.90;;;;;;5085225;28;20044;-77
2022/10/13 00:06:10;;;;;;;35.13;13.93;;;9.40;99.90;;;;;;5064916;28;20074;-78
2022/10/13 00:08:37;;;;;;;31.40;13.65;;;9.40;99.90;;;;;;5065166;28;20033;-79
2022/10/13 00:11:13;;;;;;;29.92;13.88;;;9.40;99.90;;;;;;5056292;28;20055;-79
2022/10/13 00:13:40;;;;;;;27.25;13.98;;;9.50;99.90;;;;;;5049525;28;20052;-80
2022/10/13 00:16:06;;;;;;;29.25;13.27;;;9.40;99.90;;;;;;5068012;28;20043;-80
2022/10/13 00:18:32;;;;;;;32.22;13.95;;;9.50;99.90;;;;;;5043704;28;20280;-77
2022/10/13 00:20:57;;;;;;;32.28;13.65;;;9.40;99.90;;;;;;5069959;28;20539;-80
2022/10/13 00:23:23;;;;;;;29.45;14.23;;;9.50;99.90;;;;;;5069408;28;20807;-78
2022/10/13 00:25:50;;;;;;;31.83;14.18;;;9.50;99.90;;;;;;5052398;28;20150;-80
2022/10/13 00:28:18;;;;;;;27.95;13.63;;;9.40;99.90;;;;;;5048812;28;20132;-79
2022/10/13 00:30:45;;;;;;;31.40;13.60;;;9.50;99.90;;;;;;5062325;28;20047;-78
2022/10/13 00:33:12;;;;;;;26.10;13.88;;;9.40;99.90;;;;;;5061674;28;20069;-77
2022/10/13 00:35:43;;;;;;;37.67;14.02;;;9.50;99.90;;;;;;5067054;28;20234;-79
2022/10/13 00:38:10;;;;;;;29.15;13.85;;;9.60;99.90;;;;;;5065555;28;20044;-79
2022/10/13 00:40:55;;;;;;;27.77;13.55;;;9.50;99.90;;;;;;5065185;28;20044;-79
2022/10/13 00:43:23;;;;;;;28.90;13.85;;;9.50;99.90;;;;;;5064963;28;20059;-79
2022/10/13 00:45:53;;;;;;;29.63;14.32;;;9.50;99.90;;;;;;5067805;28;20051;-80
2022/10/13 00:48:28;;;;;;;31.48;14.27;;;9.50;99.90;;;;;;5067168;28;20055;-77
2022/10/13 00:50:54;;;;;;;;;;;9.60;99.90;;;;;;5044191;28;20105;-77
2022/10/13 00:53:23;;;;;;;35.25;14.85;;;9.50;99.90;;;;;;5065999;28;20365;-78
2022/10/13 00:55:50;;;;;;;25.38;13.75;;;9.50;99.90;;;;;;5064310;28;20029;-79
2022/10/13 00:58:21;;;;;;;33.05;14.15;;;9.50;99.90;;;;;;5062864;28;20381;-80
2022/10/13 01:00:50;;;;;;;30.30;14.30;;;9.50;99.90;;;;;;5051886;28;20040;-80
2022/10/13 01:03:20;;;;;;;28.42;15.27;;;9.50;99.90;;;;;;5072227;28;20394;-80
2022/10/13 01:05:47;;;;;;;30.80;14.20;;;9.50;99.90;;;;;;5092667;28;20040;-79
2022/10/13 01:08:14;;;;;;;24.20;14.43;;;9.50;99.90;;;;;;5072079;28;20039;-78
2022/10/13 01:11:25;;;;;;;32.30;14.07;;;9.50;99.90;;;;;;5049115;28;20074;-79
2022/10/13 01:14:09;;;;;;;33.05;14.30;;;9.60;99.90;;;;;;4970315;28;20129;-79
2022/10/13 01:16:52;;;;;;;30.35;14.93;;;9.50;99.90;;;;;;4984427;28;20116;-79
2022/10/13 01:19:37;;;;;;;31.98;14.65;;;9.50;99.90;;;;;;5002800;28;20054;-78
2022/10/13 01:22:13;;;;;;;30.85;14.88;;;9.50;99.90;;;;;;4963440;28;20601;-77
2022/10/13 01:25:01;;;;;;;32.38;15.75;;;9.60;99.90;;;;;;4970013;28;21160;-78
2022/10/13 01:27:30;;;;;;;33.53;15.35;;;9.60;99.90;;;;;;4987895;28;20045;-79
2022/10/13 01:30:17;;;;;;;34.65;16.27;;;9.60;99.90;;;;;;4970673;28;20084;-80
2022/10/13 01:33:06;;;;;;;37.92;16.02;;;9.60;99.90;;;;;;4986180;28;20065;-80
2022/10/13 01:35:50;;;;;;;32.45;15.77;;;9.60;99.90;;;;;;4980724;28;20042;-78
2022/10/13 01:38:39;;;;;;;31.58;15.38;;;9.60;99.90;;;;;;4973354;28;20106;-79
2022/10/13 01:41:31;;;;;;;31.52;15.18;;;9.60;99.90;;;;;;4966315;28;20065;-79
2022/10/13 01:44:07;;;;;;;34.40;16.33;;;9.60;99.90;;;;;;4964759;28;20165;-78
2022/10/13 01:46:36;;;;;;;31.10;16.08;;;9.60;99.90;;;;;;4963316;28;20046;-78
2022/10/13 01:49:07;;;;;;;28.77;15.68;;;9.60;99.90;;;;;;4968119;28;20050;-79
2022/10/13 01:51:35;;;;;;;33.10;15.43;;;9.60;99.90;;;;;;5012214;28;20057;-78
2022/10/13 01:54:00;;;;;;;30.33;15.20;;;9.60;99.90;;;;;;5051824;28;20066;-81
2022/10/13 01:56:26;;;;;;;36.45;15.38;;;9.60;99.90;;;;;;5046649;28;20066;-78
2022/10/13 01:58:55;;;;;;;23.80;14.68;;;9.60;99.90;;;;;;5047050;28;20369;-78
2022/10/13 02:02:11;;;;;;;31.33;16.17;;;9.70;99.90;;;;;;5030746;28;20039;-79
2022/10/13 02:05:22;;;;;;;26.83;15.02;;;9.60;99.90;;;;;;4985538;28;20441;-78
2022/10/13 02:08:04;;;;;;;37.58;16.23;;;9.70;99.90;;;;;;4981906;28;20089;-80
2022/10/13 02:10:44;;;;;;;28.92;15.07;;;9.60;99.90;;;;;;4971141;28;20081;-78
2022/10/13 02:13:14;;;;;;;31.33;15.63;;;9.60;99.90;;;;;;4991208;28;20183;-79
2022/10/13 02:15:44;;;;;;;37.00;15.48;;;9.60;99.90;;;;;;5007801;28;20084;-79
2022/10/13 02:18:18;;;;;;;36.00;15.90;;;9.70;99.90;;;;;;4987558;28;20093;-77
2022/10/13 02:20:44;;;;;;;28.05;15.60;;;9.50;99.90;;;;;;4987909;28;20128;-79
2022/10/13 02:23:15;;;;;;;33.75;15.75;;;9.60;99.90;;;;;;4969892;28;20133;-79
2022/10/13 02:25:42;;;;;;;33.88;15.90;;;9.60;99.90;;;;;;4986970;28;20065;-78
2022/10/13 02:28:10;;;;;;;33.00;15.82;;;9.50;99.90;;;;;;4987256;28;20046;-81
2022/10/13 02:30:40;;;;;;;31.30;16.33;;;9.60;99.90;;;;;;4992969;28;20608;-77
2022/10/13 02:33:07;;;;;;;35.92;16.80;;;9.60;99.90;;;;;;4992861;28;20445;-80
2022/10/13 02:35:33;;;;;;;34.90;16.13;;;9.60;99.90;;;;;;4992188;28;20092;-78
2022/10/13 02:37:59;;;;;;;27.75;16.08;;;9.60;99.90;;;;;;5012078;28;20041;-78
2022/10/13 02:40:25;;;;;;;31.15;16.27;;;9.60;99.90;;;;;;5042078;28;20043;-79
2022/10/13 02:42:51;;;;;;;36.83;16.50;;;9.60;99.90;;;;;;5088579;28;20508;-79
2022/10/13 02:45:16;;;;;;;27.85;15.38;;;9.60;99.90;;;;;;5071167;28;20135;-79
2022/10/13 02:47:42;;;;;;;30.98;16.55;;;9.50;99.90;;;;;;5065697;28;20185;-79
2022/10/13 02:50:09;;;;;;;34.90;16.20;;;9.50;99.90;;;;;;5071131;28;20139;-80
2022/10/13 02:52:34;;;;;;;31.65;15.85;;;9.60;99.90;;;;;;5054361;28;20046;-78
2022/10/13 02:55:01;;;;;;;34.22;16.65;;;9.50;99.90;;;;;;5055178;28;20352;-78
2022/10/13 02:57:27;;;;;;;38.53;17.45;;;9.50;99.90;;;;;;5070992;28;20409;-79
2022/10/13 02:59:54;;;;;;;39.53;17.13;;;9.60;99.90;;;;;;5070866;28;20177;-79
2022/10/13 03:02:19;;;;;;;34.78;16.73;;;9.40;99.90;;;;;;5051864;28;20083;-79
2022/10/13 03:04:46;;;;;;;39.67;16.80;;;9.50;99.90;;;;;;5054852;28;20154;-77
2022/10/13 03:07:12;;;;;;;38.05;17.00;;;9.50;99.90;;;;;;5069977;28;20054;-78
2022/10/13 03:09:37;;;;;;;30.85;15.75;;;9.50;99.90;;;;;;5071766;28;20036;-77
2022/10/13 03:12:03;;;;;;;37.53;17.00;;;9.50;99.90;;;;;;5065969;28;20036;-78
2022/10/13 03:14:29;;;;;;;37.40;16.08;;;9.60;99.90;;;;;;5069753;28;20047;-78
2022/10/13 03:16:54;;;;;;;29.90;16.48;;;9.50;99.90;;;;;;5074313;28;20443;-77
2022/10/13 03:19:21;;;;;;;34.80;16.67;;;9.60;99.90;;;;;;5054254;28;20055;-79
2022/10/13 03:21:47;;;;;;;34.10;16.73;;;9.60;99.90;;;;;;5070023;28;20508;-76
2022/10/13 03:24:12;;;;;;;40.05;17.08;;;9.60;99.90;;;;;;5053152;28;20043;-76
2022/10/13 03:26:39;;;;;;;33.55;17.23;;;9.60;99.90;;;;;;5068618;28;20036;-78
2022/10/13 03:29:05;;;;;;;29.58;16.55;;;9.60;99.90;;;;;;5053385;28;20389;-77
2022/10/13 03:31:31;;;;;;;35.28;17.38;;;9.50;99.90;;;;;;5053623;28;20125;-78
2022/10/13 03:33:56;;;;;;;43.72;18.95;;;9.60;99.90;;;;;;5050881;28;20549;-79
2022/10/13 03:36:22;;;;;;;34.42;18.13;;;9.60;99.90;;;;;;5080904;28;20048;-79
2022/10/13 03:38:47;;;;;;;34.47;17.67;;;9.70;99.90;;;;;;5069508;28;20055;-79
2022/10/13 03:41:17;;;;;;;36.00;18.30;;;9.70;99.90;;;;;;5086673;28;20385;-78
2022/10/13 03:43:44;;;;;;;34.50;18.90;;;9.60;99.90;;;;;;5076685;28;20044;-77
2022/10/13 03:46:12;;;;;;;41.42;18.67;;;9.70;99.90;;;;;;5040169;28;20052;-79
2022/10/13 03:48:38;;;;;;;36.72;18.75;;;9.70;99.90;;;;;;5052545;28;20051;-77
2022/10/13 03:51:09;;;;;;;40.15;18.95;;;9.70;99.90;;;;;;5094527;28;20115;-78
2022/10/13 03:53:35;;;;;;;38.55;19.60;;;9.70;99.90;;;;;;5093697;28;20039;-78
2022/10/13 03:56:03;;;;;;;36.50;18.98;;;9.80;99.90;;;;;;5074928;28;20051;-77
2022/10/13 03:58:28;;;;;;;32.88;19.40;;;9.80;99.90;;;;;;5070267;28;20131;-79
2022/10/13 04:00:54;;;;;;;38.10;19.38;;;9.80;99.90;;;;;;5069075;28;20177;-77
2022/10/13 04:03:20;;;;;;;40.63;19.05;;;9.80;99.90;;;;;;5067738;28;20048;-78
2022/10/13 04:05:46;;;;;;;34.30;18.42;;;9.80;99.90;;;;;;5077406;28;20040;-77
2022/10/13 04:11:53;;;;;;;42.92;20.77;;;9.80;99.90;;;;;;5088877;28;20046;-78
2022/10/13 04:14:19;;;;;;;33.92;19.55;;;9.80;99.90;;;;;;5071763;28;20040;-80
2022/10/13 04:16:45;;;;;;;42.35;19.52;;;9.80;99.90;;;;;;5073897;28;20098;-79
2022/10/13 04:19:13;;;;;;;41.63;20.70;;;9.80;99.90;;;;;;5053773;28;20075;-77
2022/10/13 04:21:40;;;;;;;41.60;19.85;;;9.80;99.90;;;;;;5053341;28;20082;-77
2022/10/13 04:24:07;;;;;;;32.78;19.00;;;9.80;99.90;;;;;;5072110;28;20651;-78
2022/10/13 04:26:35;;;;;;;45.75;20.90;;;9.80;99.90;;;;;;5069612;28;20163;-77
2022/10/13 04:29:03;;;;;;;44.00;20.98;;;9.80;99.90;;;;;;5052914;28;20060;-78
2022/10/13 04:31:29;;;;;;;36.58;20.60;;;9.80;99.90;;;;;;5066251;28;20413;-77
2022/10/13 04:33:56;;;;;;;49.00;20.75;;;9.80;99.90;;;;;;5065000;28;20926;-78
2022/10/13 04:36:22;;;;;;;41.90;20.95;;;9.80;99.90;;;;;;5050974;28;20447;-79
2022/10/13 04:38:48;;;;;;;41.65;21.15;;;9.80;99.90;;;;;;5049234;28;20071;-79
2022/10/13 04:41:15;;;;;;;45.55;22.63;;;9.80;99.90;;;;;;5067997;28;20078;-77
2022/10/13 04:43:42;;;;;;;42.05;21.08;;;9.80;99.90;;;;;;5050103;28;20036;-76
2022/10/13 04:46:22;;;;;;;38.75;22.13;;;9.80;99.90;;;;;;5052875;28;20048;-79
2022/10/13 04:48:48;;;;;;;45.55;22.42;;;9.80;99.90;;;;;;5061233;28;20042;-78
2022/10/13 04:51:17;;;;;;;40.40;21.55;;;9.70;99.90;;;;;;5064279;28;20145;-78
2022/10/13 04:53:43;;;;;;;40.38;21.98;;;9.70;99.90;;;;;;5064570;28;20040;-77
2022/10/13 04:56:12;;;;;;;39.72;22.38;;;9.70;99.90;;;;;;5067109;28;20031;-78
2022/10/13 04:58:40;;;;;;;46.22;21.50;;;9.80;99.90;;;;;;5060127;28;20043;-79
2022/10/13 05:01:10;;;;;;;39.80;21.13;;;9.80;99.90;;;;;;5051477;28;20078;-79
2022/10/13 05:03:35;;;;;;;40.92;21.67;;;9.70;99.90;;;;;;5044821;28;20082;-78
2022/10/13 05:06:01;;;;;;;42.75;22.40;;;9.70;99.90;;;;;;5063341;28;20036;-77
2022/10/13 05:08:27;;;;;;;45.20;22.90;;;9.80;99.90;;;;;;5068549;28;20044;-77
2022/10/13 05:10:59;;;;;;;39.15;21.65;;;9.80;99.90;;;;;;5064131;28;20047;-78
2022/10/13 05:13:25;;;;;;;46.50;23.95;;;9.80;99.90;;;;;;5082061;28;20394;-76
2022/10/13 05:15:51;;;;;;;43.65;22.17;;;9.90;99.90;;;;;;5068658;28;20036;-80
2022/10/13 05:18:17;;;;;;;43.13;23.23;;;9.80;99.90;;;;;;5064182;28;20040;-80
2022/10/13 05:20:42;;;;;;;45.65;22.75;;;9.80;99.90;;;;;;5084884;28;20083;-77
2022/10/13 05:23:10;;;;;;;46.15;23.50;;;9.80;99.90;;;;;;5049178;28;20063;-78
2022/10/13 05:25:37;;;;;;;40.10;22.60;;;9.80;99.90;;;;;;5049597;28;20042;-77
2022/10/13 05:28:05;;;;;;;43.58;23.75;;;9.80;99.90;;;;;;5061054;28;20127;-79
2022/10/13 05:30:31;;;;;;;43.55;23.45;;;9.80;99.90;;;;;;5064452;28;20115;-79
2022/10/13 05:32:57;;;;;;;40.72;22.90;;;9.80;99.90;;;;;;5045378;28;20082;-78
2022/10/13 05:35:26;;;;;;;44.92;24.23;;;9.80;99.90;;;;;;5076052;28;20059;-76
2022/10/13 05:37:52;;;;;;;43.72;23.88;;;9.80;99.90;;;;;;5055647;28;20480;-79
2022/10/13 05:40:21;;;;;;;45.35;23.60;;;9.90;99.90;;;;;;5071654;28;20055;-77
2022/10/13 05:42:50;;;;;;;47.38;23.98;;;9.80;99.90;;;;;;5071531;28;20046;-78
2022/10/13 05:45:17;;;;;;;43.38;24.77;;;9.80;99.90;;;;;;5053577;28;20104;-80
2022/10/13 05:47:42;;;;;;;48.38;25.08;;;9.80;99.90;;;;;;5068849;28;20552;-77
2022/10/13 05:50:08;;;;;;;47.00;24.73;;;9.80;99.90;;;;;;5073191;28;20036;-77
2022/10/13 05:52:36;;;;;;;52.17;25.38;;;9.80;99.90;;;;;;5067331;28;20043;-79
2022/10/13 05:55:04;;;;;;;48.28;26.40;;;9.80;99.90;;;;;;5047829;28;20260;-77
2022/10/13 05:57:35;;;;;;;49.35;26.60;;;9.80;99.90;;;;;;5067244;28;20032;-78
2022/10/13 06:00:10;;;;;;;52.00;25.50;;;9.80;99.90;;;;;;5067599;28;20040;-77
2022/10/13 06:02:42;;;;;;;;;;;9.80;99.90;;;;;;5066820;28;20040;-77
2022/10/13 06:05:13;;;;;;;53.35;26.75;;;9.80;99.90;;;;;;5053164;28;19962;-77
2022/10/13 06:07:40;;;;;;;58.78;26.02;;;9.70;99.90;;;;;;5051956;28;20134;-78
2022/10/13 06:10:07;;;;;;;52.38;26.98;;;9.80;99.90;;;;;;5067110;28;20070;-80
2022/10/13 06:12:33;;;;;;;50.63;27.58;;;9.90;99.90;;;;;;5068408;28;20035;-80
2022/10/13 06:14:59;;;;;;;47.05;25.35;;;9.90;99.90;;;;;;5054650;28;20039;-80
2022/10/13 06:17:24;;;;;;;52.72;26.52;;;9.90;99.90;;;;;;5090343;28;20032;-77
2022/10/13 06:19:50;;;;;;;59.90;27.63;;;9.90;99.90;;;;;;5072485;28;20044;-78
2022/10/13 06:22:16;;;;;;;57.42;28.40;;;9.90;99.90;;;;;;5054611;28;20036;-81
2022/10/13 06:24:42;;;;;;;51.70;27.23;;;10.00;99.90;;;;;;5070497;28;20054;-82
2022/10/13 06:27:08;;;;;;;51.00;26.30;;;10.00;99.90;;;;;;5052999;28;20048;-76
2022/10/13 06:29:35;;;;;;;59.22;28.63;;;10.20;99.90;;;;;;5066396;28;20425;-80
2022/10/13 06:32:01;;;;;;;58.78;28.90;;;10.00;99.90;;;;;;5053462;28;20040;-80
2022/10/13 06:34:27;;;;;;;46.88;27.80;;;10.10;99.90;;;;;;5052023;28;20056;-80
2022/10/13 06:36:52;;;;;;;58.53;29.38;;;10.10;99.90;;;;;;5068871;28;20060;-81
2022/10/13 06:39:18;;;;;;;53.38;27.85;;;10.20;99.90;;;;;;5049587;28;20049;-79
2022/10/13 06:41:44;;;;;;;55.00;28.92;;;10.20;99.90;;;;;;5066961;28;20521;-79
2022/10/13 06:44:10;;;;;;;50.63;29.38;;;10.20;99.90;;;;;;5061504;28;20033;-80
2022/10/13 06:46:35;;;;;;;50.65;28.20;;;10.30;99.90;;;;;;5047337;28;20495;-79
2022/10/13 06:49:01;;;;;;;52.10;28.30;;;10.30;99.90;;;;;;5063254;28;20056;-80
2022/10/13 06:51:27;;;;;;;61.70;29.85;;;10.40;99.90;;;;;;5044124;28;20411;-80
2022/10/13 06:53:55;;;;;;;59.30;27.90;;;10.40;99.90;;;;;;5060031;28;20075;-79
2022/10/13 06:56:22;;;;;;;48.90;28.40;;;10.40;99.90;;;;;;5048134;28;20045;-79
2022/10/13 06:58:47;;;;;;;56.63;27.27;;;10.50;99.90;;;;;;5043125;28;20068;-79
2022/10/13 07:01:13;;;;;;;50.03;27.48;;;10.50;99.90;;;;;;5044315;28;21748;-78
2022/10/13 07:03:39;;;;;;;52.10;27.90;;;10.50;99.90;;;;;;5062332;28;20116;-81
2022/10/13 07:06:06;;;;;;;50.40;27.58;;;10.70;99.90;;;;;;5049045;28;20131;-80
2022/10/13 07:12:13;;;;;;;50.17;27.52;;;10.70;99.90;;;;;;5068053;28;20035;-78
2022/10/13 07:14:39;;;;;;;47.42;28.30;;;10.70;99.90;;;;;;5069559;28;20036;-79
2022/10/13 07:17:04;;;;;;;52.05;27.63;;;10.80;99.90;;;;;;5059898;28;20044;-80
2022/10/13 07:19:30;;;;;;;53.28;28.70;;;10.90;99.90;;;;;;5042111;28;20110;-81
2022/10/13 07:21:56;;;;;;;50.13;27.05;;;11.00;99.90;;;;;;5060685;28;20114;-77
2022/10/13 07:24:22;;;;;;;51.00;26.73;;;11.00;99.90;;;;;;5046303;28;20076;-77
2022/10/13 07:26:47;;;;;;;47.60;27.30;;;11.00;99.90;;;;;;5061504;28;20135;-79
2022/10/13 07:29:14;;;;;;;48.08;27.38;;;11.20;99.90;;;;;;5042051;28;20129;-79
2022/10/13 07:31:43;;;;;;;50.95;27.27;;;11.30;99.90;;;;;;5028831;28;20154;-77
2022/10/13 07:34:09;;;;;;;50.67;27.58;;;11.30;99.90;;;;;;5062017;28;20083;-82
2022/10/13 07:36:34;;;;;;;47.08;26.90;;;11.40;99.90;;;;;;5064411;28;20967;-81
2022/10/13 07:39:04;;;;;;;49.63;27.25;;;11.30;99.90;;;;;;5070104;28;20048;-79
2022/10/13 07:41:30;;;;;;;48.67;26.58;;;11.40;99.90;;;;;;5034364;28;20113;-80
2022/10/13 07:43:57;;;;;;;47.03;27.27;;;11.40;99.90;;;;;;5046047;28;20506;-76
2022/10/13 07:46:24;;;;;;;49.28;26.50;;;11.40;99.90;;;;;;5071953;28;20055;-79
2022/10/13 07:48:52;;;;;;;49.85;26.05;;;11.40;99.90;;;;;;5067498;28;20048;-78
2022/10/13 07:51:18;;;;;;;53.88;28.08;;;11.50;99.90;;;;;;5065392;28;20135;-78
2022/10/13 07:53:45;;;;;;;48.65;26.45;;;11.40;99.90;;;;;;5052580;28;20117;-78
2022/10/13 07:56:13;;;;;;;44.92;26.25;;;11.60;99.90;;;;;;5065312;28;20090;-77
2022/10/13 07:58:41;;;;;;;47.33;27.15;;;11.60;99.90;;;;;;5052036;28;20040;-79
2022/10/13 08:01:08;;;;;;;51.15;25.95;;;11.60;99.90;;;;;;5064663;28;20115;-81
2022/10/13 08:03:34;;;;;;;46.35;25.67;;;11.70;99.90;;;;;;5046967;28;20113;-79
2022/10/13 08:06:02;;;;;;;51.83;25.98;;;11.80;99.90;;;;;;5041695;28;20385;-79
2022/10/13 08:08:28;;;;;;;43.05;24.52;;;11.90;99.90;;;;;;5058287;28;20052;-78
2022/10/13 08:10:54;;;;;;;44.80;24.58;;;12.00;99.90;;;;;;5042195;28;20086;-76
2022/10/13 08:13:20;;;;;;;43.50;25.15;;;12.20;99.90;;;;;;5047232;28;20052;-80
2022/10/13 08:15:46;;;;;;;45.00;25.33;;;12.00;99.90;;;;;;5052072;28;20044;-78
2022/10/13 08:18:13;;;;;;;43.17;23.85;;;12.10;99.90;;;;;;5068028;28;20055;-80
2022/10/13 08:20:44;;;;;;;42.03;24.38;;;12.00;99.90;;;;;;5047493;28;20193;-79
2022/10/13 08:23:13;;;;;;;45.95;24.27;;;12.00;99.90;;;;;;5051622;28;20160;-81
2022/10/13 08:25:43;;;;;;;41.05;24.05;;;12.10;99.90;;;;;;5053314;28;20048;-80
2022/10/13 08:28:20;;;;;;;40.25;24.38;;;12.10;99.90;;;;;;5066433;28;20102;-82
2022/10/13 08:30:46;;;;;;;41.33;24.30;;;12.00;99.90;;;;;;5063373;28;20045;-82
2022/10/13 08:33:11;;;;;;;48.80;26.20;;;12.00;99.90;;;;;;5064010;28;20063;-83
2022/10/13 08:35:41;;;;;;;41.05;25.40;;;12.00;99.90;;;;;;5068166;28;20039;-80
2022/10/13 08:38:07;;;;;;;47.15;25.05;;;12.00;99.90;;;;;;5057764;28;20490;-82
2022/10/13 08:40:33;;;;;;;44.85;25.17;;;12.00;99.90;;;;;;5056031;28;20083;-79
2022/10/13 08:43:07;;;;;;;45.70;25.55;;;12.10;99.90;;;;;;5055561;28;20048;-78
2022/10/13 08:45:33;;;;;;;42.53;25.65;;;12.00;99.90;;;;;;5047746;28;20048;-80
2022/10/13 08:48:01;;;;;;;44.28;25.35;;;12.10;99.90;;;;;;5048055;28;20032;-81
2022/10/13 08:50:34;;;;;;;46.30;26.55;;;12.10;99.90;;;;;;5029255;28;20084;-79
2022/10/13 08:53:31;;;;;;;41.25;26.25;;;12.10;99.90;;;;;;5044354;28;20052;-78
2022/10/13 08:55:59;;;;;;;54.95;27.50;;;12.20;99.90;;;;;;5012484;28;20083;-79
2022/10/13 08:58:28;;;;;;;45.88;25.83;;;12.30;99.90;;;;;;5047117;28;20080;-77
2022/10/13 09:01:03;;;;;;;48.60;27.95;;;12.30;99.90;;;;;;5028471;28;20040;-80
2022/10/13 09:03:29;;;;;;;58.78;29.40;;;12.30;99.90;;;;;;5046674;28;20091;-79
2022/10/13 09:06:01;;;;;;;49.28;28.17;;;12.20;99.90;;;;;;5042545;28;20040;-80
2022/10/13 09:08:49;;;;;;;55.72;29.60;;;12.30;99.90;;;;;;5028933;28;20071;-81
2022/10/13 09:11:15;;;;;;;49.40;28.73;;;12.30;99.90;;;;;;5048624;28;20063;-78
2022/10/13 09:13:41;;;;;;;51.33;28.98;;;12.30;99.90;;;;;;5048303;28;20045;-79
2022/10/13 09:16:07;;;;;;;57.90;29.85;;;12.30;99.90;;;;;;5035095;28;20060;-79
2022/10/13 09:18:33;;;;;;;52.70;29.83;;;12.40;99.90;;;;;;5048403;28;20037;-80
2022/10/13 09:21:17;;;;;;;54.35;30.73;;;12.40;99.90;;;;;;5032400;28;20044;-77
2022/10/13 09:23:44;;;;;;;47.83;27.90;;;12.40;99.90;;;;;;5048328;28;20139;-78
2022/10/13 09:26:19;;;;;;;55.40;30.23;;;12.50;99.90;;;;;;5050020;28;20087;-79
2022/10/13 09:28:44;;;;;;;51.90;30.40;;;12.50;99.90;;;;;;5050938;28;20534;-82
2022/10/13 09:31:18;;;;;;;57.95;30.42;;;12.50;99.90;;;;;;5049656;28;20128;-79
2022/10/13 09:33:45;;;;;;;50.15;28.48;;;12.50;99.90;;;;;;5032531;28;20063;-78
2022/10/13 09:36:13;;;;;;;55.42;29.77;;;12.50;99.90;;;;;;5048937;28;20049;-78
2022/10/13 09:38:41;;;;;;;50.67;30.90;;;12.50;99.90;;;;;;5049903;28;20143;-79
2022/10/13 09:41:20;;;;;;;54.83;31.63;;;12.60;99.90;;;;;;5052476;28;20032;-78
2022/10/13 09:43:46;;;;;;;58.63;32.80;;;12.60;99.90;;;;;;5046052;28;20044;-82
2022/10/13 09:46:30;;;;;;;57.10;31.67;;;12.70;99.90;;;;;;5049515;28;20055;-81
2022/10/13 09:49:28;;;;;;;58.17;32.95;;;12.60;99.90;;;;;;5084636;28;20161;-79
2022/10/13 09:52:01;;;;;;;55.83;33.00;;;12.60;99.90;;;;;;5058704;28;20044;-79
2022/10/13 09:54:42;;;;;;;55.90;32.10;;;12.70;99.90;;;;;;5044956;28;20063;-80
2022/10/13 09:57:17;;;;;;;54.22;32.13;;;12.80;99.90;;;;;;5060642;28;20044;-82
2022/10/13 09:59:50;;;;;;;48.08;30.48;;;12.90;99.90;;;;;;5048543;28;20086;-76
2022/10/13 10:02:56;;;;;;;54.30;30.80;;;12.90;99.90;;;;;;5042943;28;20029;-79
2022/10/13 10:05:55;;;;;;;52.55;29.17;;;13.00;99.90;;;;;;5007609;28;20037;-79
2022/10/13 10:11:53;;;;;;;44.58;29.00;;;13.00;99.90;;;;;;5025571;28;20049;-79
2022/10/13 10:14:29;;;;;;;41.78;27.30;;;13.20;99.90;;;;;;4987563;28;20060;-78
2022/10/13 10:17:19;;;;;;;43.58;26.98;;;13.20;99.90;;;;;;4989409;28;20171;-78
2022/10/13 10:19:57;;;;;;;44.28;26.95;;;13.20;99.90;;;;;;5003649;28;20077;-79
2022/10/13 10:22:48;;;;;;;47.50;27.42;;;13.20;99.90;;;;;;5018589;28;20512;-77
2022/10/13 10:25:33;;;;;;;42.38;25.90;;;13.40;99.90;;;;;;5018613;28;20046;-80
2022/10/13 10:28:01;;;;;;;49.72;26.98;;;13.30;99.90;;;;;;4999946;28;20073;-80
2022/10/13 10:30:29;;;;;;;36.85;25.33;;;13.30;99.90;;;;;;4986111;28;20171;-79
2022/10/13 10:33:05;;;;;;;38.28;24.98;;;13.30;99.90;;;;;;5003287;28;20588;-77
2022/10/13 10:36:15;;;;;;;45.15;26.20;;;13.30;99.90;;;;;;5005322;28;20053;-79
2022/10/13 10:39:00;;;;;;;42.80;26.90;;;13.30;99.90;;;;;;4994730;28;20303;-79
2022/10/13 10:41:42;;;;;;;50.75;29.38;;;13.30;99.90;;;;;;5008779;28;20107;-77
2022/10/13 10:44:22;;;;;;;47.00;28.67;;;13.20;99.90;;;;;;4999719;28;20556;-78
2022/10/13 10:46:49;;;;;;;51.05;29.35;;;13.30;99.90;;;;;;5001956;28;20053;-77
2022/10/13 10:49:18;;;;;;;46.20;27.92;;;13.20;99.90;;;;;;5015976;28;20503;-79
2022/10/13 10:51:45;;;;;;;44.47;27.63;;;13.20;99.90;;;;;;5019490;28;20087;-78
2022/10/13 10:54:26;;;;;;;47.63;27.13;;;13.30;99.90;;;;;;5005198;28;20394;-80
2022/10/13 10:57:21;;;;;;;42.00;25.77;;;13.20;99.90;;;;;;5012653;28;20128;-78
2022/10/13 11:00:21;;;;;;;42.88;25.52;;;13.20;99.90;;;;;;5002934;28;20103;-78
2022/10/13 11:03:05;;;;;;;42.60;26.38;;;13.30;99.90;;;;;;4964821;28;20270;-78
2022/10/13 11:06:25;;;;;;;43.47;27.15;;;13.30;99.90;;;;;;4969000;28;20046;-79
2022/10/13 11:08:51;;;;;;;40.55;26.10;;;13.30;99.90;;;;;;4928126;29;20156;-80
2022/10/13 11:11:22;;;;;;;41.80;26.33;;;13.30;99.90;;;;;;4930630;28;20059;-79
2022/10/13 11:14:06;;;;;;;43.45;27.73;;;13.30;99.90;;;;;;4912209;29;20399;-79
2022/10/13 11:16:37;;;;;;;41.95;27.75;;;13.30;99.90;;;;;;4945191;28;20490;-78
2022/10/13 11:19:30;;;;;;;38.92;26.42;;;13.40;99.90;;;;;;4963379;28;20054;-80
2022/10/13 11:21:56;;;;;;;46.60;27.42;;;13.50;99.90;;;;;;4948706;28;20100;-81
2022/10/13 11:24:40;;;;;;;37.95;26.08;;;13.50;99.90;;;;;;4948600;28;20473;-81
2022/10/13 11:27:15;;;;;;;37.65;24.80;;;13.80;99.90;;;;;;4951184;28;20137;-80
2022/10/13 11:29:53;;;;;;;;;;;13.80;99.90;;;;;;4942629;28;20054;-79
2022/10/13 11:35:04;;;;;;;33.00;23.52;;;13.80;99.90;;;;;;4965844;28;20118;-83
2022/10/13 11:37:51;;;;;;;31.45;22.52;;;13.90;99.90;;;;;;4960183;28;20255;-79
2022/10/13 11:40:51;;;;;;;29.13;21.95;;;13.90;99.90;;;;;;4967193;28;20055;-81
2022/10/13 11:43:27;;;;;;;32.28;22.40;;;13.90;99.90;;;;;;5012638;28;20074;-81
2022/10/13 11:46:21;;;;;;;34.33;23.10;;;13.90;99.90;;;;;;5038641;28;20139;-79
2022/10/13 11:49:05;;;;;;;31.73;21.50;;;14.00;99.90;;;;;;5058783;28;20043;-80
2022/10/13 11:51:57;;;;;;;28.10;21.23;;;14.00;99.90;;;;;;5055051;28;20112;-81
2022/10/13 11:54:47;;;;;;;29.02;21.23;;;13.90;99.90;;;;;;5031775;28;20147;-81
2022/10/13 11:57:23;;;;;;;31.17;21.70;;;13.80;99.90;;;;;;5058103;28;20051;-79
2022/10/13 11:59:54;;;;;;;29.52;21.25;;;13.90;99.90;;;;;;5050057;28;20075;-79
2022/10/13 12:02:22;;;;;;;29.50;21.67;;;13.90;99.90;;;;;;5068047;28;20059;-83
2022/10/13 12:05:02;;;;;;;30.63;21.80;;;13.90;99.90;;;;;;5056490;28;20062;-79
2022/10/13 12:07:36;;;;;;;29.27;21.85;;;14.00;99.90;;;;;;5051863;28;20398;-79
2022/10/13 12:10:07;;;;;;;30.13;21.67;;;14.20;99.90;;;;;;5055349;28;20685;-79
2022/10/13 12:12:33;;;;;;;32.35;21.52;;;14.10;99.90;;;;;;5028197;28;20063;-80
2022/10/13 12:14:58;;;;;;;25.67;19.80;;;14.30;99.90;;;;;;5087487;28;20043;-81
2022/10/13 12:17:34;;;;;;;30.42;21.58;;;14.30;99.90;;;;;;5055146;28;20051;-81
2022/10/13 12:20:22;;;;;;;27.00;20.48;;;14.40;99.90;;;;;;5067970;28;20101;-79
2022/10/13 12:22:50;;;;;;;29.05;20.70;;;14.40;99.90;;;;;;5067147;28;20125;-79
2022/10/13 12:25:18;;;;;;;32.25;22.10;;;14.30;99.90;;;;;;5065641;28;20052;-78
2022/10/13 12:27:47;;;;;;;29.38;21.23;;;14.40;99.90;;;;;;5066027;28;20064;-78
2022/10/13 12:30:35;;;;;;;33.05;21.35;;;14.40;99.90;;;;;;5064055;28;20060;-79
2022/10/13 12:33:01;;;;;;;31.45;20.50;;;14.50;99.90;;;;;;5062221;28;20547;-80
2022/10/13 12:35:29;;;;;;;31.77;21.13;;;14.50;99.90;;;;;;5068732;28;20048;-80
2022/10/13 12:37:56;;;;;;;28.05;20.55;;;14.60;99.90;;;;;;5047225;28;20450;-80
2022/10/13 12:40:23;;;;;;;28.65;20.67;;;14.50;99.90;;;;;;5059082;28;20388;-81
2022/10/13 12:42:49;;;;;;;27.15;20.42;;;14.50;99.90;;;;;;5065209;28;20478;-81
2022/10/13 12:45:23;;;;;;;27.40;20.85;;;14.70;99.90;;;;;;5063814;28;20075;-81
2022/10/13 12:47:52;;;;;;;29.50;20.70;;;14.60;99.90;;;;;;5057831;28;20044;-78
2022/10/13 12:50:29;;;;;;;31.17;20.23;;;14.60;99.90;;;;;;5042477;28;20045;-79
2022/10/13 12:53:07;;;;;;;30.40;20.85;;;14.60;99.90;;;;;;5055469;28;20052;-80
2022/10/13 12:55:34;;;;;;;33.67;20.67;;;14.60;99.90;;;;;;5065521;28;20050;-79
2022/10/13 12:58:01;;;;;;;28.52;19.33;;;14.70;99.90;;;;;;5067378;28;20055;-78
2022/10/13 13:00:29;;;;;;;30.20;20.00;;;14.50;99.90;;;;;;5068597;28;20044;-81
2022/10/13 13:03:00;;;;;;;26.23;20.27;;;14.60;99.90;;;;;;5070348;28;20396;-78
2022/10/13 13:05:42;;;;;;;29.02;19.98;;;14.50;99.90;;;;;;5051099;28;20053;-79
2022/10/13 13:08:23;;;;;;;25.13;19.30;;;14.50;99.90;;;;;;5049029;28;20044;-77